createdAt,value
2022-09-03T00:01:44.175Z,2.60
2022-09-03T00:04:25.739Z,3.15
2022-09-03T00:06:58.701Z,2.80
2022-09-03T00:09:40.441Z,3.00
2022-09-03T00:12:24.885Z,3.13
2022-09-03T00:15:11.867Z,3.10
2022-09-03T00:17:44.994Z,3.00
2022-09-03T00:20:12.212Z,2.60
2022-09-03T00:22:45.045Z,2.78
2022-09-03T00:25:15.147Z,2.65
2022-09-03T00:27:42.923Z,2.83
2022-09-03T00:30:17.083Z,3.10
2022-09-03T00:32:48.425Z,2.90
2022-09-03T00:35:18.426Z,2.97
2022-09-03T00:37:45.714Z,3.03
2022-09-03T00:40:32.593Z,2.80
2022-09-03T00:43:35.034Z,3.00
2022-09-03T00:46:26.739Z,3.42
2022-09-03T00:48:56.674Z,2.75
2022-09-03T00:51:50.131Z,2.85
2022-09-03T00:55:05.501Z,3.17
2022-09-03T00:57:47.343Z,3.63
2022-09-03T01:00:19.685Z,3.03
2022-09-03T01:02:56.907Z,3.38
2022-09-03T01:06:03.474Z,3.20
2022-09-03T01:08:46.570Z,3.07
2022-09-03T01:11:55.438Z,2.85
2022-09-03T01:14:44.274Z,2.85
2022-09-03T01:17:26.341Z,3.10
2022-09-03T01:19:56.333Z,2.50
2022-09-03T01:22:41.652Z,3.10
2022-09-03T01:25:17.679Z,3.00
2022-09-03T01:27:49.494Z,3.20
2022-09-03T01:30:20.205Z,2.55
2022-09-03T01:33:10.378Z,2.95
2022-09-03T01:35:44.688Z,3.37
2022-09-03T01:38:26.386Z,2.70
2022-09-03T01:41:33.702Z,2.83
2022-09-03T01:44:41.465Z,3.00
2022-09-03T01:47:40.894Z,3.08
2022-09-03T01:50:17.605Z,3.00
2022-09-03T01:53:11.361Z,2.92
2022-09-03T01:55:56.151Z,2.80
2022-09-03T01:58:41.186Z,3.53
2022-09-03T02:01:13.850Z,3.17
2022-09-03T02:03:45.372Z,3.10
2022-09-03T02:06:12.714Z,2.67
2022-09-03T02:08:40.295Z,2.85
2022-09-03T02:11:09.286Z,3.10
2022-09-03T02:13:39.096Z,2.88
2022-09-03T02:16:11.562Z,3.30
2022-09-03T02:18:46.174Z,2.88
2022-09-03T02:21:18.293Z,2.92
2022-09-03T02:23:45.653Z,3.17
2022-09-03T02:26:13.494Z,3.00
2022-09-03T02:28:41.203Z,3.40
2022-09-03T02:31:08.543Z,3.55
2022-09-03T02:33:38.116Z,3.10
2022-09-03T02:36:07.191Z,2.97
2022-09-03T02:38:34.493Z,2.83
2022-09-03T02:41:01.795Z,2.70
2022-09-03T02:43:37.703Z,3.05
2022-09-03T02:46:06.302Z,3.00
2022-09-03T02:48:33.666Z,2.45
2022-09-03T02:51:01.126Z,3.20
2022-09-03T02:53:29.125Z,2.80
2022-09-03T02:56:00.374Z,3.10
2022-09-03T02:58:28.288Z,2.70
2022-09-03T03:00:55.583Z,3.08
2022-09-03T03:03:23.034Z,3.00
2022-09-03T03:05:52.167Z,3.23
2022-09-03T03:08:21.312Z,2.80
2022-09-03T03:10:49.554Z,2.78
2022-09-03T03:13:16.874Z,2.90
2022-09-03T03:15:44.503Z,3.13
2022-09-03T03:18:14.952Z,3.33
2022-09-03T03:20:42.291Z,2.95
2022-09-03T03:23:09.709Z,3.53
2022-09-03T03:25:38.136Z,3.28
2022-09-03T03:28:05.654Z,2.63
2022-09-03T03:30:32.937Z,3.13
2022-09-03T03:33:01.300Z,3.00
2022-09-03T03:35:28.577Z,3.03
2022-09-03T03:37:58.331Z,3.22
2022-09-03T03:40:25.602Z,3.28
2022-09-03T03:42:53.658Z,3.23
2022-09-03T03:45:21.080Z,3.30
2022-09-03T03:47:48.441Z,2.90
2022-09-03T03:50:16.929Z,3.03
2022-09-03T03:52:44.196Z,3.08
2022-09-03T03:55:12.025Z,3.03
2022-09-03T03:57:43.182Z,2.45
2022-09-03T04:00:13.749Z,2.92
2022-09-03T04:02:44.026Z,3.00
2022-09-03T04:05:11.552Z,2.65
2022-09-03T04:07:38.838Z,2.90
2022-09-03T04:10:06.772Z,2.80
2022-09-03T04:12:33.979Z,2.80
2022-09-03T04:15:01.313Z,3.05
2022-09-03T04:17:28.630Z,2.70
2022-09-03T04:19:55.887Z,2.80
2022-09-03T04:22:23.100Z,2.80
2022-09-03T04:24:50.352Z,2.72
2022-09-03T04:27:17.596Z,2.60
2022-09-03T04:29:44.789Z,2.70
2022-09-03T04:32:31.189Z,2.70
2022-09-03T04:34:58.396Z,2.67
2022-09-03T04:37:25.714Z,2.90
2022-09-03T04:39:54.304Z,2.70
2022-09-03T04:42:22.129Z,3.25
2022-09-03T04:44:49.395Z,2.90
2022-09-03T04:47:16.707Z,2.70
2022-09-03T04:49:43.905Z,2.47
2022-09-03T04:52:11.141Z,2.72
2022-09-03T04:54:38.457Z,2.60
2022-09-03T04:57:05.727Z,2.50
2022-09-03T04:59:33.054Z,2.72
2022-09-03T05:02:00.375Z,2.67
2022-09-03T05:04:28.001Z,2.70
2022-09-03T05:06:55.316Z,2.90
2022-09-03T05:09:22.575Z,2.80
2022-09-03T05:11:49.775Z,2.42
2022-09-03T05:14:17.048Z,2.83
2022-09-03T05:16:52.617Z,3.10
2022-09-03T05:19:20.435Z,2.95
2022-09-03T05:21:47.693Z,2.97
2022-09-03T05:24:15.500Z,3.83
2022-09-03T05:26:42.745Z,3.35
2022-09-03T05:29:10.040Z,3.10
2022-09-03T05:31:39.323Z,3.60
2022-09-03T05:34:06.854Z,3.40
2022-09-03T05:36:35.905Z,2.90
2022-09-03T05:39:03.827Z,3.15
2022-09-03T05:41:33.620Z,3.03
2022-09-03T05:44:00.909Z,3.30
2022-09-03T05:46:32.339Z,2.90
2022-09-03T05:49:06.627Z,2.95
2022-09-03T05:51:35.079Z,3.08
2022-09-03T05:54:03.064Z,2.50
2022-09-03T05:56:30.907Z,3.50
2022-09-03T05:59:02.073Z,3.00
2022-09-03T06:01:31.330Z,3.20
2022-09-03T06:04:06.432Z,2.80
2022-09-03T06:06:35.355Z,3.00
2022-09-03T06:09:07.720Z,3.20
2022-09-03T06:11:37.397Z,3.00
2022-09-03T06:14:06.295Z,2.75
2022-09-03T06:16:35.158Z,3.22
2022-09-03T06:19:03.150Z,2.70
2022-09-03T06:21:30.387Z,2.90
2022-09-03T06:23:58.457Z,2.97
2022-09-03T06:26:30.795Z,2.72
2022-09-03T06:28:58.328Z,3.15
2022-09-03T06:31:26.124Z,2.67
2022-09-03T06:33:54.752Z,2.85
2022-09-03T06:36:23.283Z,2.97
2022-09-03T06:38:54.787Z,2.85
2022-09-03T06:41:27.960Z,2.60
2022-09-03T06:44:03.398Z,2.70
2022-09-03T06:46:32.296Z,3.05
2022-09-03T06:48:59.596Z,2.93
2022-09-03T06:51:27.894Z,3.13
2022-09-03T06:53:59.555Z,3.28
2022-09-03T06:56:27.209Z,3.28
2022-09-03T06:58:56.956Z,3.28
2022-09-03T07:01:30.167Z,3.30
2022-09-03T07:03:59.075Z,3.25
2022-09-03T07:06:29.917Z,3.40
2022-09-03T07:08:58.095Z,3.20
2022-09-03T07:11:27.601Z,3.47
2022-09-03T07:13:56.046Z,3.80
2022-09-03T07:16:24.938Z,3.65
2022-09-03T07:18:52.582Z,3.35
2022-09-03T07:21:21.331Z,3.20
2022-09-03T07:23:48.955Z,3.20
2022-09-03T07:26:27.033Z,3.13
2022-09-03T07:28:54.563Z,3.25
2022-09-03T07:31:26.223Z,2.80
2022-09-03T07:33:56.546Z,3.30
2022-09-03T07:36:26.327Z,2.80
2022-09-03T07:38:57.793Z,3.00
2022-09-03T07:41:28.929Z,3.10
2022-09-03T07:43:57.304Z,2.83
2022-09-03T07:46:26.062Z,3.17
2022-09-03T07:48:58.097Z,2.47
2022-09-03T07:51:27.886Z,2.90
2022-09-03T07:53:56.354Z,2.78
2022-09-03T07:56:23.820Z,2.88
2022-09-03T07:58:51.125Z,2.80
2022-09-03T08:01:20.196Z,2.63
2022-09-03T08:03:51.376Z,3.10
2022-09-03T08:06:19.865Z,3.00
2022-09-03T08:08:47.167Z,3.65
2022-09-03T08:11:19.361Z,3.17
2022-09-03T08:13:55.077Z,3.20
2022-09-03T08:16:22.409Z,3.00
2022-09-03T08:18:51.287Z,3.08
2022-09-03T08:21:20.165Z,3.05
2022-09-03T08:23:48.384Z,3.47
2022-09-03T08:26:16.520Z,3.47
2022-09-03T08:28:43.829Z,3.17
2022-09-03T08:31:11.860Z,3.17
2022-09-03T08:33:42.479Z,3.50
2022-09-03T08:36:12.970Z,3.45
2022-09-03T08:38:43.392Z,3.25
2022-09-03T08:41:12.157Z,2.83
2022-09-03T08:44:03.013Z,2.70
2022-09-03T08:47:08.101Z,2.83
2022-09-03T08:49:39.448Z,2.67
2022-09-03T08:52:09.144Z,2.30
2022-09-03T08:54:36.405Z,2.67
2022-09-03T08:57:03.942Z,2.47
2022-09-03T08:59:33.211Z,2.90
2022-09-03T09:02:10.653Z,2.63
2022-09-03T09:04:42.161Z,2.25
2022-09-03T09:07:21.075Z,2.60
2022-09-03T09:09:51.362Z,2.20
2022-09-03T09:12:42.749Z,2.20
2022-09-03T09:15:43.675Z,2.30
2022-09-03T09:18:40.600Z,2.28
2022-09-03T09:21:21.939Z,2.30
2022-09-03T09:23:51.229Z,2.28
2022-09-03T09:26:19.675Z,2.10
2022-09-03T09:28:47.743Z,2.70
2022-09-03T09:31:19.147Z,1.77
2022-09-03T09:33:46.833Z,2.30
2022-09-03T09:36:19.395Z,2.60
2022-09-03T09:38:48.916Z,2.60
2022-09-03T09:41:20.598Z,2.45
2022-09-03T09:43:50.622Z,2.13
2022-09-03T09:46:22.729Z,1.90
2022-09-03T09:48:51.889Z,2.30
2022-09-03T09:51:26.886Z,2.10
2022-09-03T09:54:25.343Z,2.40
2022-09-03T09:57:00.326Z,2.10
2022-09-03T09:59:27.602Z,2.10
2022-09-03T10:02:09.342Z,1.88
2022-09-03T10:04:36.803Z,2.08
2022-09-03T10:07:07.136Z,1.85
2022-09-03T10:09:34.377Z,2.00
2022-09-03T10:12:20.511Z,1.80
2022-09-03T10:14:49.760Z,2.10
2022-09-03T10:17:30.102Z,1.95
2022-09-03T10:20:27.960Z,1.80
2022-09-03T10:23:05.521Z,1.75
2022-09-03T10:25:43.858Z,2.00
2022-09-03T10:28:13.403Z,1.70
2022-09-03T10:31:02.135Z,1.70
2022-09-03T10:33:51.700Z,1.73
2022-09-03T10:36:23.724Z,1.75
2022-09-03T10:39:02.031Z,2.10
2022-09-03T10:41:55.919Z,1.90
2022-09-03T10:44:59.983Z,1.70
2022-09-03T10:47:30.342Z,1.73
2022-09-03T10:50:17.381Z,2.00
2022-09-03T10:53:15.695Z,1.80
2022-09-03T10:56:10.635Z,1.70
2022-09-03T10:59:02.957Z,1.98
2022-09-03T11:01:30.273Z,1.70
2022-09-03T11:04:17.819Z,1.90
2022-09-03T11:07:05.813Z,1.60
2022-09-03T11:09:37.857Z,1.88
2022-09-03T11:12:14.351Z,1.90
2022-09-03T11:14:46.837Z,1.33
2022-09-03T11:17:22.507Z,1.90
2022-09-03T11:20:05.331Z,2.07
2022-09-03T11:22:32.603Z,1.60
2022-09-03T11:25:00.259Z,2.00
2022-09-03T11:27:33.517Z,2.30
2022-09-03T11:30:14.255Z,1.70
2022-09-03T11:32:59.920Z,1.90
2022-09-03T11:35:33.168Z,1.65
2022-09-03T11:38:05.192Z,2.33
2022-09-03T11:40:36.998Z,1.60
2022-09-03T11:43:13.053Z,1.67
2022-09-03T11:45:40.567Z,1.63
2022-09-03T11:48:35.883Z,1.70
2022-09-03T11:51:04.051Z,2.08
2022-09-03T11:53:35.333Z,1.98
2022-09-03T11:56:05.511Z,1.70
2022-09-03T11:58:37.114Z,1.70
2022-09-03T12:01:14.978Z,1.98
2022-09-03T12:03:49.710Z,1.73
2022-09-03T12:06:47.182Z,1.83
2022-09-03T12:09:26.473Z,1.80
2022-09-03T12:12:12.333Z,1.90
2022-09-03T12:15:00.073Z,2.20
2022-09-03T12:18:23.766Z,2.00
2022-09-03T12:20:55.721Z,2.00
2022-09-03T12:23:58.228Z,1.90
2022-09-03T12:26:27.571Z,2.20
2022-09-03T12:28:58.836Z,2.10
2022-09-03T12:31:29.839Z,1.85
2022-09-03T12:34:00.339Z,2.00
2022-09-03T12:36:39.940Z,2.17
2022-09-03T12:39:12.736Z,2.10
2022-09-03T12:41:54.544Z,1.75
2022-09-03T12:44:29.973Z,1.55
2022-09-03T12:49:53.368Z,1.88
2022-09-03T12:52:24.377Z,2.07
2022-09-03T12:54:58.587Z,1.67
2022-09-03T12:57:48.104Z,2.13
2022-09-03T13:00:16.515Z,2.00
2022-09-03T13:03:19.102Z,1.98
2022-09-03T13:05:49.050Z,1.77
2022-09-03T13:08:22.479Z,1.90
2022-09-03T13:10:55.250Z,1.90
2022-09-03T13:13:27.054Z,2.00
2022-09-03T13:16:00.288Z,1.92
2022-09-03T13:18:29.941Z,1.77
2022-09-03T13:21:09.148Z,1.92
2022-09-03T13:23:42.160Z,1.92
2022-09-03T13:26:22.362Z,1.70
2022-09-03T13:28:58.726Z,1.98
2022-09-03T13:31:54.016Z,1.70
2022-09-03T13:34:24.193Z,1.90
2022-09-03T13:37:19.729Z,2.00
2022-09-03T13:39:51.078Z,1.80
2022-09-03T13:42:39.100Z,1.90
2022-09-03T13:45:29.678Z,1.70
2022-09-03T13:48:25.773Z,1.80
2022-09-03T13:51:07.104Z,1.88
2022-09-03T13:53:53.439Z,2.00
2022-09-03T13:56:56.280Z,2.10
2022-09-03T13:59:35.626Z,2.33
2022-09-03T14:02:08.209Z,2.20
2022-09-03T14:04:47.843Z,2.13
2022-09-03T14:07:58.037Z,1.90
2022-09-03T14:10:25.253Z,1.77
2022-09-03T14:12:55.307Z,1.80
2022-09-03T14:15:35.248Z,3.75
2022-09-03T14:18:36.655Z,1.85
2022-09-03T14:21:10.325Z,2.03
2022-09-03T14:24:02.240Z,2.20
2022-09-03T14:26:39.566Z,1.70
2022-09-03T14:29:10.611Z,1.90
2022-09-03T14:32:22.885Z,1.73
2022-09-03T14:35:15.283Z,2.22
2022-09-03T14:38:25.897Z,1.95
2022-09-03T14:41:04.886Z,1.70
2022-09-03T14:43:47.604Z,2.05
2022-09-03T14:46:38.391Z,1.77
2022-09-03T14:49:14.785Z,1.60
2022-09-03T14:52:06.175Z,1.70
2022-09-03T14:55:07.436Z,1.90
2022-09-03T14:57:52.985Z,1.98
2022-09-03T15:00:22.081Z,1.77
2022-09-03T15:03:02.304Z,2.20
2022-09-03T15:05:43.067Z,1.80
2022-09-03T15:08:16.418Z,1.83
2022-09-03T15:10:54.486Z,1.92
2022-09-03T15:14:00.830Z,2.50
2022-09-03T15:16:49.947Z,2.20
2022-09-03T15:19:35.888Z,2.20
2022-09-03T15:22:19.599Z,2.40
2022-09-03T15:24:51.983Z,2.13
2022-09-03T15:27:53.461Z,2.08
2022-09-03T15:30:21.351Z,2.10
2022-09-03T15:32:51.593Z,1.95
2022-09-03T15:35:28.223Z,1.90
2022-09-03T15:37:57.902Z,1.75
2022-09-03T15:40:50.324Z,2.28
2022-09-03T15:43:30.449Z,1.85
2022-09-03T15:46:19.771Z,1.83
2022-09-03T15:49:25.478Z,2.00
2022-09-03T15:52:18.338Z,1.90
2022-09-03T15:55:03.337Z,2.15
2022-09-03T15:57:54.797Z,2.20
2022-09-03T16:00:22.466Z,1.90
2022-09-03T16:02:59.102Z,1.97
2022-09-03T16:05:37.037Z,1.83
2022-09-03T16:08:28.733Z,2.10
2022-09-03T16:11:10.062Z,1.83
2022-09-03T16:13:59.631Z,2.03
2022-09-03T16:16:42.559Z,2.13
2022-09-03T16:19:36.061Z,1.90
2022-09-03T16:22:22.269Z,2.00
2022-09-03T16:25:02.396Z,1.88
2022-09-03T16:28:08.092Z,2.28
2022-09-03T16:30:40.690Z,1.93
2022-09-03T16:33:33.469Z,2.00
2022-09-03T16:36:26.039Z,2.05
2022-09-03T16:39:09.929Z,2.00
2022-09-03T16:41:44.783Z,2.17
2022-09-03T16:44:50.643Z,1.90
2022-09-03T16:47:42.209Z,1.90
2022-09-03T16:50:29.259Z,2.45
2022-09-03T16:53:10.570Z,1.73
2022-09-03T16:56:05.101Z,1.80
2022-09-03T16:58:57.759Z,1.87
2022-09-03T17:02:00.594Z,1.95
2022-09-03T17:04:51.709Z,1.90
2022-09-03T17:07:46.988Z,1.98
2022-09-03T17:10:23.393Z,2.10
2022-09-03T17:13:10.284Z,2.10
2022-09-03T17:15:48.598Z,2.17
2022-09-03T17:18:43.644Z,2.30
2022-09-03T17:21:46.469Z,2.17
2022-09-03T17:24:32.900Z,2.30
2022-09-03T17:27:10.982Z,2.00
2022-09-03T17:29:43.394Z,2.40
2022-09-03T17:32:33.996Z,2.15
2022-09-03T17:35:11.336Z,2.20
2022-09-03T17:37:57.344Z,2.08
2022-09-03T17:40:49.496Z,2.27
2022-09-03T17:43:23.921Z,2.20
2022-09-03T17:46:05.988Z,2.00
2022-09-03T17:48:53.186Z,2.10
2022-09-03T17:51:32.612Z,2.30
2022-09-03T17:54:30.323Z,2.10
2022-09-03T17:57:13.248Z,2.13
2022-09-03T18:00:04.983Z,2.25
2022-09-03T18:03:06.335Z,2.10
2022-09-03T18:05:44.455Z,2.33
2022-09-03T18:08:22.149Z,2.50
2022-09-03T18:10:52.208Z,2.80
2022-09-03T18:13:39.840Z,2.50
2022-09-03T18:16:25.466Z,2.92
2022-09-03T18:18:53.285Z,2.72
2022-09-03T18:21:43.619Z,2.83
2022-09-03T18:24:51.041Z,2.95
2022-09-03T18:27:45.693Z,3.00
2022-09-03T18:30:32.502Z,2.85
2022-09-03T18:33:18.425Z,3.35
2022-09-03T18:36:04.808Z,3.30
2022-09-03T18:38:55.468Z,2.72
2022-09-03T18:41:54.993Z,2.58
2022-09-03T18:45:19.873Z,2.88
2022-09-03T18:48:27.274Z,2.72
2022-09-03T18:51:19.101Z,2.97
2022-09-03T18:54:26.767Z,3.08
2022-09-03T18:57:12.430Z,3.42
2022-09-03T19:00:04.307Z,3.00
2022-09-03T19:03:08.887Z,3.03
2022-09-03T19:06:04.448Z,2.93
2022-09-03T19:09:03.523Z,2.83
2022-09-03T19:11:55.760Z,3.08
2022-09-03T19:14:56.517Z,3.20
2022-09-03T19:18:00.765Z,3.22
2022-09-03T19:20:48.271Z,3.10
2022-09-03T19:23:34.056Z,3.60
2022-09-03T19:26:49.843Z,3.22
2022-09-03T19:30:12.112Z,3.58
2022-09-03T19:33:20.120Z,3.08
2022-09-03T19:36:17.826Z,2.43
2022-09-03T19:39:29.557Z,2.60
2022-09-03T19:42:41.241Z,2.40
2022-09-03T19:45:45.055Z,2.70
2022-09-03T19:48:36.861Z,2.60
2022-09-03T19:51:33.390Z,2.50
2022-09-03T19:54:19.202Z,2.80
2022-09-03T19:57:05.348Z,2.58
2022-09-03T19:59:55.724Z,2.75
2022-09-03T20:02:42.592Z,2.90
2022-09-03T20:05:39.527Z,2.60
2022-09-03T20:08:25.567Z,2.97
2022-09-03T20:10:56.462Z,2.80
2022-09-03T20:13:23.715Z,2.53
2022-09-03T20:16:00.331Z,2.90
2022-09-03T20:18:55.635Z,2.93
2022-09-03T20:21:58.387Z,2.70
2022-09-03T20:24:39.947Z,3.10
2022-09-03T20:27:17.286Z,2.70
2022-09-03T20:30:05.976Z,2.75
2022-09-03T20:32:55.192Z,2.60
2022-09-03T20:35:49.720Z,3.03
2022-09-03T20:38:39.734Z,2.80
2022-09-03T20:41:16.116Z,2.75
2022-09-03T20:44:08.398Z,2.97
2022-09-03T20:46:38.427Z,3.07
2022-09-03T20:49:38.011Z,4.10
2022-09-03T20:52:07.374Z,3.55
2022-09-03T20:54:39.066Z,3.60
2022-09-03T20:57:37.193Z,3.25
2022-09-03T21:00:23.358Z,3.63
2022-09-03T21:03:19.937Z,3.20
2022-09-03T21:06:28.513Z,4.07
2022-09-03T21:09:17.605Z,3.90
2022-09-03T21:11:53.688Z,3.63
2022-09-03T21:14:34.909Z,3.37
2022-09-03T21:17:20.158Z,3.50
2022-09-03T21:20:38.487Z,3.10
2022-09-03T21:23:24.355Z,3.05
2022-09-03T21:25:55.335Z,3.35
2022-09-03T21:28:38.609Z,3.20
2022-09-03T21:31:54.256Z,3.22
2022-09-03T21:34:31.504Z,3.20
2022-09-03T21:37:00.025Z,2.80
2022-09-03T21:39:31.209Z,3.42
2022-09-03T21:42:06.063Z,3.50
2022-09-03T21:44:39.303Z,3.05
2022-09-03T21:47:27.157Z,3.40
2022-09-03T21:50:03.382Z,3.38
2022-09-03T21:52:42.035Z,3.20
2022-09-03T21:55:47.183Z,3.03
2022-09-03T21:58:24.100Z,3.20
2022-09-03T22:00:53.481Z,2.85
2022-09-03T22:03:20.721Z,3.08
2022-09-03T22:06:34.323Z,3.25
2022-09-03T22:09:11.242Z,3.43
2022-09-03T22:12:04.790Z,10.00
2022-09-03T22:14:47.966Z,15.32
2022-09-03T22:17:43.993Z,19.67
2022-09-03T22:20:14.596Z,24.08
2022-09-03T22:22:57.700Z,41.87
2022-09-03T22:25:49.193Z,32.75
2022-09-03T22:28:31.235Z,29.88
2022-09-03T22:31:06.385Z,35.40
2022-09-03T22:33:45.912Z,28.63
2022-09-03T22:36:15.051Z,20.83
2022-09-03T22:39:19.363Z,13.82
2022-09-03T22:42:14.286Z,12.18
2022-09-03T22:45:15.137Z,10.80
2022-09-03T22:47:52.288Z,9.98
2022-09-03T22:50:29.172Z,7.83
2022-09-03T22:53:07.046Z,7.55
2022-09-03T22:55:35.143Z,6.28
2022-09-03T22:58:07.523Z,5.85
2022-09-03T23:00:40.727Z,6.32
2022-09-03T23:03:10.197Z,6.00
2022-09-03T23:05:40.232Z,5.00
2022-09-03T23:08:15.460Z,5.35
2022-09-03T23:10:56.912Z,4.00
2022-09-03T23:13:29.162Z,4.40
2022-09-03T23:16:22.877Z,4.23
2022-09-03T23:18:51.421Z,3.63
2022-09-03T23:21:26.772Z,3.40
2022-09-03T23:23:57.933Z,3.00
2022-09-03T23:26:44.595Z,3.20
2022-09-03T23:29:26.232Z,2.73
2022-09-03T23:31:57.163Z,3.45
2022-09-03T23:34:24.934Z,3.28
2022-09-03T23:37:32.611Z,3.10
2022-09-03T23:40:01.950Z,3.00
2022-09-03T23:42:29.865Z,3.10
2022-09-03T23:45:19.544Z,3.15
2022-09-03T23:47:51.328Z,3.50
2022-09-03T23:50:37.560Z,3.85
2022-09-03T23:53:33.711Z,4.30
2022-09-03T23:56:19.265Z,3.90
2022-09-03T23:59:08.543Z,3.85
